Maregas — HP3584 — position and weather

sailwx.info

Track history (hours):
 
Tides and Currents Weather Stations Pressure Air Temp Water Temp Dewpoint Dewpoint Depression Visibility Wind Speed Wind Dir Waves Ship Positions

Maregas

Last reported at 2018-Jun-08 11:07 UTC. Time now 2018-Jun-21 08:43 UTC.
Position N 30°50' E 122°57'.
Warning: this ship's position is 12 days out of date.

Length 99 m; draft 5 m.

Type: Ship (hazmat cat D). MMSI: 357078000.

Date/timePositionNaut miles runAvg speedWind from/ knotsBaromVisibWave heightAir tempDewpointWater temp
2018-Jun-08 11:07N 30°50' E 122°57'210.8
2018-Jun-08 10:56N 30°52' E 122°56'8410.3
2018-Jun-08 02:46N 31°28' E 121°27'411.8
2018-Jun-08 02:27N 31°31' E 121°24'511.7
2018-Jun-08 02:00N 31°34' E 121°19'611.6
2018-Jun-08 01:30N 31°38' E 121°15'43 1.9
2018-Jun-07 02:03N 32°01' E 120°31'112.0
2018-Jun-07 02:00N 32°02' E 120°31'36 0.7
2018-Jun-05 00:15N 31°44' E 121°07'2 9.9
2018-Jun-05 00:00N 31°42' E 121°09'510.1
2018-Jun-04 23:30N 31°39' E 121°14'510.5
2018-Jun-04 23:00N 31°35' E 121°18'3 5.3
2018-Jun-04 22:29N 31°35' E 121°21'0 0.0
2018-Jun-04 21:59N 31°35' E 121°21'0 0.1
2018-Jun-04 21:29N 31°35' E 121°21'0 0.1
2018-Jun-04 20:59N 31°35' E 121°21'0 0.0
2018-Jun-04 20:29N 31°35' E 121°21'0 0.0
2018-Jun-04 19:59N 31°35' E 121°21'0 0.0
2018-Jun-04 19:29N 31°35' E 121°21'0 0.0
2018-Jun-04 18:59N 31°35' E 121°21'0 0.0
2018-Jun-04 18:29N 31°35' E 121°21'0 0.0
2018-Jun-04 17:59N 31°35' E 121°21'0 0.1
2018-Jun-04 17:29N 31°35' E 121°21'0 0.1
2018-Jun-04 16:59N 31°35' E 121°21'0 0.0
2018-Jun-04 16:29N 31°35' E 121°21'0 0.0
2018-Jun-04 15:59N 31°35' E 121°21'0 0.0
2018-Jun-04 15:29N 31°35' E 121°21'0 0.0
2018-Jun-04 14:58N 31°35' E 121°21'0 0.0
2018-Jun-04 14:28N 31°35' E 121°21'0 0.0
2018-Jun-04 13:55N 31°35' E 121°21'0 0.0
2018-Jun-04 13:25N 31°35' E 121°21'0 0.0
2018-Jun-04 12:58N 31°35' E 121°21'0 0.0
2018-Jun-04 12:28N 31°35' E 121°21'0 0.1
2018-Jun-04 12:00N 31°35' E 121°21'0 0.0
2018-Jun-04 11:26N 31°35' E 121°21'0 0.0
2018-Jun-04 10:56N 31°35' E 121°21'0 0.2
2018-Jun-04 10:26N 31°35' E 121°21'0 0.1
2018-Jun-04 09:56N 31°35' E 121°21'0 0.0
2018-Jun-04 09:29N 31°35' E 121°21'0 0.0
2018-Jun-04 08:59N 31°35' E 121°21'0 0.0
2018-Jun-04 08:29N 31°35' E 121°21'0 0.0
2018-Jun-04 07:59N 31°35' E 121°21'0 0.0
2018-Jun-04 07:30N 31°35' E 121°21'2 3.4
2018-Jun-04 07:00N 31°33' E 121°21'610.6
2018-Jun-04 06:29N 31°30' E 121°26'3211.3
2018-Jun-04 03:41N 31°09' E 121°54'411.5
2018-Jun-04 03:22N 31°07' E 121°58'3 9.1
2018-Jun-04 03:00N 31°05' E 122°01'611.8
2018-Jun-04 02:29N 31°03' E 122°08'511.3
2018-Jun-04 02:00N 31°03' E 122°14'1010.7
2018-Jun-04 01:03N 31°01' E 122°26'0 9.6
2018-Jun-04 01:00N 31°01' E 122°26'9 0.2
2018-Jun-02 01:00N 31°01' E 122°36'0 0.0
2018-Jun-02 00:30N 31°01' E 122°36'0 0.0
2018-Jun-01 23:57N 31°01' E 122°36'0 0.0
2018-Jun-01 22:06N 31°01' E 122°37'0 0.1
2018-Jun-01 22:00N 31°01' E 122°37'0 0.0
2018-Jun-01 21:30N 31°01' E 122°37'0 0.0
2018-Jun-01 19:45N 31°01' E 122°36'0 0.0
2018-Jun-01 19:24N 31°01' E 122°36'0 0.0
2018-Jun-01 18:12N 31°01' E 122°36'0 0.2
2018-Jun-01 17:54N 31°01' E 122°36'0 0.0
2018-Jun-01 17:30N 31°01' E 122°36'0 0.0
2018-Jun-01 16:36N 31°01' E 122°36'0 0.0
2018-May-30 21:24N 31°01' E 122°37'0 0.0
2018-May-30 20:57N 31°01' E 122°37'0 0.0
2018-May-30 14:37N 31°01' E 122°36'0 0.0
2018-May-30 14:14N 31°01' E 122°36'0 0.0
2018-May-30 13:50N 31°01' E 122°36'  
Track history (hours):
 
Tides and Currents Weather Stations Pressure Air Temp Water Temp Dewpoint Dewpoint Depression Visibility Wind Speed Wind Dir Waves Ship Positions

Maregas

Last reported at 2018-Jun-08 11:07 UTC. Time now 2018-Jun-21 08:43 UTC.
Position N 30°50' E 122°57'.
Warning: this ship's position is 12 days out of date.

Length 99 m; draft 5 m.

Type: Ship (hazmat cat D). MMSI: 357078000.

Date/timePositionNaut miles runAvg speedWind from/ knotsBaromVisibWave heightAir tempDewpointWater temp
2018-Jun-08 11:07N 30°50' E 122°57'210.8
2018-Jun-08 10:56N 30°52' E 122°56'8410.3
2018-Jun-08 02:46N 31°28' E 121°27'411.8
2018-Jun-08 02:27N 31°31' E 121°24'511.7
2018-Jun-08 02:00N 31°34' E 121°19'611.6
2018-Jun-08 01:30N 31°38' E 121°15'43 1.9
2018-Jun-07 02:03N 32°01' E 120°31'112.0
2018-Jun-07 02:00N 32°02' E 120°31'36 0.7
2018-Jun-05 00:15N 31°44' E 121°07'2 9.9
2018-Jun-05 00:00N 31°42' E 121°09'510.1
2018-Jun-04 23:30N 31°39' E 121°14'510.5
2018-Jun-04 23:00N 31°35' E 121°18'3 5.3
2018-Jun-04 22:29N 31°35' E 121°21'0 0.0
2018-Jun-04 21:59N 31°35' E 121°21'0 0.1
2018-Jun-04 21:29N 31°35' E 121°21'0 0.1
2018-Jun-04 20:59N 31°35' E 121°21'0 0.0
2018-Jun-04 20:29N 31°35' E 121°21'0 0.0
2018-Jun-04 19:59N 31°35' E 121°21'0 0.0
2018-Jun-04 19:29N 31°35' E 121°21'0 0.0
2018-Jun-04 18:59N 31°35' E 121°21'0 0.0
2018-Jun-04 18:29N 31°35' E 121°21'0 0.0
2018-Jun-04 17:59N 31°35' E 121°21'0 0.1
2018-Jun-04 17:29N 31°35' E 121°21'0 0.1
2018-Jun-04 16:59N 31°35' E 121°21'0 0.0
2018-Jun-04 16:29N 31°35' E 121°21'0 0.0
2018-Jun-04 15:59N 31°35' E 121°21'0 0.0
2018-Jun-04 15:29N 31°35' E 121°21'0 0.0
2018-Jun-04 14:58N 31°35' E 121°21'0 0.0
2018-Jun-04 14:28N 31°35' E 121°21'0 0.0
2018-Jun-04 13:55N 31°35' E 121°21'0 0.0
2018-Jun-04 13:25N 31°35' E 121°21'0 0.0
2018-Jun-04 12:58N 31°35' E 121°21'0 0.0
2018-Jun-04 12:28N 31°35' E 121°21'0 0.1
2018-Jun-04 12:00N 31°35' E 121°21'0 0.0
2018-Jun-04 11:26N 31°35' E 121°21'0 0.0
2018-Jun-04 10:56N 31°35' E 121°21'0 0.2
2018-Jun-04 10:26N 31°35' E 121°21'0 0.1
2018-Jun-04 09:56N 31°35' E 121°21'0 0.0
2018-Jun-04 09:29N 31°35' E 121°21'0 0.0
2018-Jun-04 08:59N 31°35' E 121°21'0 0.0
2018-Jun-04 08:29N 31°35' E 121°21'0 0.0
2018-Jun-04 07:59N 31°35' E 121°21'0 0.0
2018-Jun-04 07:30N 31°35' E 121°21'2 3.4
2018-Jun-04 07:00N 31°33' E 121°21'610.6
2018-Jun-04 06:29N 31°30' E 121°26'3211.3
2018-Jun-04 03:41N 31°09' E 121°54'411.5
2018-Jun-04 03:22N 31°07' E 121°58'3 9.1
2018-Jun-04 03:00N 31°05' E 122°01'611.8
2018-Jun-04 02:29N 31°03' E 122°08'511.3
2018-Jun-04 02:00N 31°03' E 122°14'1010.7
2018-Jun-04 01:03N 31°01' E 122°26'0 9.6
2018-Jun-04 01:00N 31°01' E 122°26'9 0.2
2018-Jun-02 01:00N 31°01' E 122°36'0 0.0
2018-Jun-02 00:30N 31°01' E 122°36'0 0.0
2018-Jun-01 23:57N 31°01' E 122°36'0 0.0
2018-Jun-01 22:06N 31°01' E 122°37'0 0.1
2018-Jun-01 22:00N 31°01' E 122°37'0 0.0
2018-Jun-01 21:30N 31°01' E 122°37'0 0.0
2018-Jun-01 19:45N 31°01' E 122°36'0 0.0
2018-Jun-01 19:24N 31°01' E 122°36'0 0.0
2018-Jun-01 18:12N 31°01' E 122°36'0 0.2
2018-Jun-01 17:54N 31°01' E 122°36'0 0.0
2018-Jun-01 17:30N 31°01' E 122°36'0 0.0
2018-Jun-01 16:36N 31°01' E 122°36'0 0.0
2018-May-30 21:24N 31°01' E 122°37'0 0.0
2018-May-30 20:57N 31°01' E 122°37'0 0.0
2018-May-30 14:37N 31°01' E 122°36'0 0.0
2018-May-30 14:14N 31°01' E 122°36'0 0.0
2018-May-30 13:50N 31°01' E 122°36'  

Dump ship's entire track history